createdAt,value
2023-07-29T00:00:17.578Z,182
2023-07-29T00:01:17.585Z,181.9
2023-07-29T00:02:17.621Z,182.5
2023-07-29T00:03:17.748Z,182.4
2023-07-29T00:04:17.610Z,181.5
2023-07-29T00:05:17.620Z,181.8
2023-07-29T00:06:17.649Z,182.8
2023-07-29T00:07:17.676Z,182.2
2023-07-29T00:08:17.707Z,183
2023-07-29T00:09:17.726Z,182.8
2023-07-29T00:10:17.753Z,182.4
2023-07-29T00:11:17.789Z,182.1
2023-07-29T00:12:17.794Z,182.1
2023-07-29T00:13:18.533Z,183.6
2023-07-29T00:14:17.841Z,182.8
2023-07-29T00:15:17.860Z,182.2
2023-07-29T00:16:17.918Z,181.2
2023-07-29T00:17:17.895Z,180.8
2023-07-29T00:18:17.902Z,181.1
2023-07-29T00:19:17.917Z,181.9
2023-07-29T00:20:17.952Z,180.7
2023-07-29T00:21:17.944Z,180.7
2023-07-29T00:22:17.982Z,180.9
2023-07-29T00:23:17.971Z,179.7
2023-07-29T00:24:17.973Z,179.5
2023-07-29T00:25:17.978Z,178.4
2023-07-29T00:26:17.989Z,177.9
2023-07-29T00:27:18.049Z,179.4
2023-07-29T00:28:19.309Z,179
2023-07-29T00:29:18.077Z,179.5
2023-07-29T00:30:17.125Z,178.5
2023-07-29T00:31:17.186Z,179.4
2023-07-29T00:32:17.194Z,179.1
2023-07-29T00:33:17.186Z,179.7
2023-07-29T00:34:17.184Z,178.9
2023-07-29T00:35:17.215Z,179.2
2023-07-29T00:36:17.232Z,179.2
2023-07-29T00:37:17.261Z,179.8
2023-07-29T00:38:17.283Z,179.6
2023-07-29T00:39:17.303Z,179.1
2023-07-29T00:40:17.382Z,179.3
2023-07-29T00:41:17.340Z,179.5
2023-07-29T00:42:17.355Z,178.5
2023-07-29T00:43:17.379Z,178.8
2023-07-29T00:44:17.377Z,178.5
2023-07-29T00:45:17.411Z,179.3
2023-07-29T00:46:17.419Z,178.4
2023-07-29T00:47:17.406Z,178.5
2023-07-29T00:48:17.486Z,178.2
2023-07-29T00:49:17.408Z,177.4
2023-07-29T00:50:17.443Z,176.6
2023-07-29T00:51:17.458Z,177.4
2023-07-29T00:52:17.512Z,177.3
2023-07-29T00:53:17.524Z,176.4
2023-07-29T00:54:17.547Z,176.5
2023-07-29T00:55:17.598Z,176.7
2023-07-29T00:56:17.590Z,175.9
2023-07-29T00:57:17.624Z,175
2023-07-29T00:58:17.628Z,176.2
2023-07-29T00:59:17.662Z,176
2023-07-29T01:00:17.691Z,175.5
2023-07-29T01:01:17.740Z,174.6
2023-07-29T01:02:17.755Z,175.2
2023-07-29T01:03:17.805Z,175.3
2023-07-29T01:04:17.777Z,174.5
2023-07-29T01:05:17.818Z,175.1
2023-07-29T01:06:17.784Z,175.3
2023-07-29T01:07:17.825Z,175.2
2023-07-29T01:08:17.818Z,174.7
2023-07-29T01:09:17.811Z,174.6
2023-07-29T01:10:17.816Z,174.4
2023-07-29T01:11:17.838Z,174.1
2023-07-29T01:12:17.869Z,174.4
2023-07-29T01:13:17.872Z,173.4
2023-07-29T01:14:17.899Z,173.9
2023-07-29T01:15:20.322Z,174.8
2023-07-29T01:16:18.013Z,174.8
2023-07-29T01:17:17.974Z,173.7
2023-07-29T01:18:18.011Z,174.5
2023-07-29T01:19:18.014Z,173.2
2023-07-29T01:20:18.052Z,172.3
2023-07-29T01:21:18.068Z,172.4
2023-07-29T01:22:18.092Z,172.7
2023-07-29T01:23:17.142Z,172.3
2023-07-29T01:24:17.121Z,172.7
2023-07-29T01:25:17.123Z,172.5
2023-07-29T01:26:17.149Z,172.8
2023-07-29T01:27:17.160Z,173.2
2023-07-29T01:28:17.213Z,173.1
2023-07-29T01:29:17.170Z,172.8
2023-07-29T01:30:18.299Z,173.1
2023-07-29T01:31:17.214Z,173.3
2023-07-29T01:32:17.222Z,173.8
2023-07-29T01:33:17.228Z,173.6
2023-07-29T01:34:17.255Z,173.5
2023-07-29T01:35:17.284Z,172.6
2023-07-29T01:36:17.311Z,172.5
2023-07-29T01:37:17.341Z,172.6
2023-07-29T01:38:17.354Z,172.7
2023-07-29T01:39:17.394Z,172.9
2023-07-29T01:40:17.410Z,172.1
2023-07-29T01:41:17.427Z,172.6
2023-07-29T01:42:17.449Z,173
2023-07-29T01:43:17.462Z,173
2023-07-29T01:44:17.496Z,173.1
2023-07-29T01:45:17.510Z,174
2023-07-29T01:46:17.606Z,173.8
2023-07-29T01:47:17.564Z,173.8
2023-07-29T01:48:17.568Z,173.9
2023-07-29T01:49:17.589Z,173.5
2023-07-29T01:50:17.592Z,171.8
2023-07-29T01:51:17.600Z,171.1
2023-07-29T01:52:17.604Z,171.6
2023-07-29T01:53:17.600Z,171
2023-07-29T01:54:17.643Z,171.5
2023-07-29T01:55:17.710Z,170.3
2023-07-29T01:56:17.699Z,172.3
2023-07-29T01:57:17.718Z,172.2
2023-07-29T01:58:17.741Z,172.2
2023-07-29T01:59:17.775Z,171.4
2023-07-29T02:00:17.805Z,172.7
2023-07-29T02:01:17.855Z,172.4
2023-07-29T02:02:17.836Z,171.4
2023-07-29T02:03:17.866Z,172.3
2023-07-29T02:04:17.987Z,172.3
2023-07-29T02:05:17.918Z,172.3
2023-07-29T02:06:17.927Z,171.7
2023-07-29T02:07:17.952Z,171.5
2023-07-29T02:08:17.987Z,171.2
2023-07-29T02:09:17.978Z,170.6
2023-07-29T02:10:17.998Z,171
2023-07-29T02:11:18.025Z,171.2
2023-07-29T02:12:18.035Z,171.4
2023-07-29T02:13:18.046Z,172.1
2023-07-29T02:14:18.055Z,170.9
2023-07-29T02:15:18.084Z,171.2
2023-07-29T02:16:18.101Z,170.5
2023-07-29T02:17:17.092Z,170.4
2023-07-29T02:18:17.118Z,170.6
2023-07-29T02:19:17.142Z,170.8
2023-07-29T02:20:17.172Z,170.2
2023-07-29T02:21:17.214Z,170.5
2023-07-29T02:22:17.211Z,170.2
2023-07-29T02:23:17.250Z,170.6
2023-07-29T02:24:17.271Z,170.9
2023-07-29T02:25:17.298Z,169
2023-07-29T02:26:17.324Z,169.3
2023-07-29T02:27:17.340Z,167.9
2023-07-29T02:28:17.404Z,168.7
2023-07-29T02:29:17.377Z,167.9
2023-07-29T02:30:17.404Z,168.1
2023-07-29T02:31:17.501Z,169
2023-07-29T02:32:17.473Z,168.7
2023-07-29T02:33:17.496Z,168.7
2023-07-29T02:34:17.475Z,169
2023-07-29T02:35:17.488Z,168.3
2023-07-29T02:36:17.510Z,166.9
2023-07-29T02:37:17.526Z,167.1
2023-07-29T02:38:17.520Z,167.3
2023-07-29T02:39:17.522Z,166
2023-07-29T02:40:17.530Z,166.5
2023-07-29T02:41:17.588Z,166.2
2023-07-29T02:42:17.674Z,165.7
2023-07-29T02:43:17.600Z,165.5
2023-07-29T02:44:17.634Z,166.4
2023-07-29T02:45:17.650Z,166.5
2023-07-29T02:46:17.708Z,166.5
2023-07-29T02:47:17.734Z,165.3
2023-07-29T02:48:17.729Z,165.9
2023-07-29T02:49:17.756Z,165.7
2023-07-29T02:50:17.797Z,165.9
2023-07-29T02:51:17.794Z,165.5
2023-07-29T02:52:17.823Z,165.8
2023-07-29T02:53:17.845Z,166.3
2023-07-29T02:54:17.880Z,166.8
2023-07-29T02:55:17.851Z,166.8
2023-07-29T02:56:17.887Z,166.6
2023-07-29T02:57:17.917Z,165.5
2023-07-29T02:58:17.910Z,165.4
2023-07-29T02:59:17.928Z,165.8
2023-07-29T03:00:17.938Z,166.4
2023-07-29T03:01:17.957Z,164.7
2023-07-29T03:02:17.970Z,164.6
2023-07-29T03:03:18.026Z,164.9
2023-07-29T03:04:17.966Z,165.2
2023-07-29T03:05:18.000Z,165.7
2023-07-29T03:06:18.022Z,165.1
2023-07-29T03:07:18.070Z,165.3
2023-07-29T03:08:18.067Z,165.2
2023-07-29T03:09:17.105Z,164.7
2023-07-29T03:10:17.145Z,165.3
2023-07-29T03:11:17.152Z,165.4
2023-07-29T03:12:17.179Z,164.4
2023-07-29T03:13:17.203Z,164.9
2023-07-29T03:14:17.240Z,164.8
2023-07-29T03:15:17.262Z,163.3
2023-07-29T03:16:17.355Z,162.9
2023-07-29T03:17:17.306Z,162.9
2023-07-29T03:18:17.315Z,162
2023-07-29T03:19:17.340Z,162.5
2023-07-29T03:20:17.356Z,163
2023-07-29T03:21:17.392Z,162.2
2023-07-29T03:22:17.386Z,162.2
2023-07-29T03:23:17.385Z,162
2023-07-29T03:24:17.384Z,161.9
2023-07-29T03:25:17.418Z,162.3
2023-07-29T03:26:17.407Z,162
2023-07-29T03:27:17.438Z,162.7
2023-07-29T03:28:17.477Z,162.4
2023-07-29T03:29:17.460Z,162.9
2023-07-29T03:30:17.506Z,162.9
2023-07-29T03:31:17.590Z,162.2
2023-07-29T03:32:17.559Z,162.2
2023-07-29T03:33:17.577Z,162.4
2023-07-29T03:34:17.612Z,162.2
2023-07-29T03:35:17.680Z,162
2023-07-29T03:36:17.643Z,162
2023-07-29T03:37:17.667Z,162.8
2023-07-29T03:38:17.670Z,163
2023-07-29T03:39:17.691Z,161.9
2023-07-29T03:40:17.722Z,162
2023-07-29T03:41:17.752Z,161.1
2023-07-29T03:42:17.739Z,160.8
2023-07-29T03:43:17.752Z,161.6
2023-07-29T03:44:17.782Z,161.4
2023-07-29T03:45:17.775Z,161.4
2023-07-29T03:46:17.834Z,161.9
2023-07-29T03:47:17.778Z,161.4
2023-07-29T03:48:17.812Z,161.2
2023-07-29T03:49:17.828Z,162
2023-07-29T03:50:17.863Z,162.3
2023-07-29T03:51:17.873Z,161.2
2023-07-29T03:52:17.917Z,161.1
2023-07-29T03:53:17.916Z,162
2023-07-29T03:54:17.944Z,162.5
2023-07-29T03:55:17.958Z,162.3
2023-07-29T03:56:17.967Z,162
2023-07-29T03:57:18.027Z,161.7
2023-07-29T03:58:18.023Z,162.4
2023-07-29T03:59:18.033Z,162.5
2023-07-29T04:00:18.049Z,162.4
2023-07-29T04:01:18.101Z,162.6
2023-07-29T04:02:18.085Z,162.7
2023-07-29T04:03:18.170Z,163.2
2023-07-29T04:04:17.167Z,163.2
2023-07-29T04:05:17.103Z,163.8
2023-07-29T04:06:17.111Z,164.3
2023-07-29T04:07:17.117Z,164.2
2023-07-29T04:08:17.144Z,164.3
2023-07-29T04:09:17.158Z,164.8
2023-07-29T04:10:17.180Z,165.2
2023-07-29T04:11:17.213Z,167
2023-07-29T04:12:17.233Z,166.6
2023-07-29T04:13:17.256Z,167.2
2023-07-29T04:14:17.299Z,167.6
2023-07-29T04:15:17.314Z,168
2023-07-29T04:16:17.352Z,167.7
2023-07-29T04:17:17.377Z,167.2
2023-07-29T04:18:17.390Z,169.7
2023-07-29T04:19:17.405Z,170.4
2023-07-29T04:20:17.428Z,171
2023-07-29T04:21:17.457Z,171.9
2023-07-29T04:22:17.505Z,172.4
2023-07-29T04:23:17.491Z,172.6
2023-07-29T04:24:17.509Z,172.9
2023-07-29T04:25:17.530Z,172.8
2023-07-29T04:26:17.543Z,173.2
2023-07-29T04:27:17.577Z,173.9
2023-07-29T04:28:17.590Z,174.8
2023-07-29T04:29:17.582Z,174.7
2023-07-29T04:30:17.584Z,175.4
2023-07-29T04:31:17.653Z,175.6
2023-07-29T04:32:17.616Z,176.6
2023-07-29T04:33:17.625Z,176.3
2023-07-29T04:34:17.645Z,176.5
2023-07-29T04:35:17.676Z,176.1
2023-07-29T04:36:17.698Z,176.9
2023-07-29T04:37:17.717Z,177
2023-07-29T04:38:17.745Z,177
2023-07-29T04:39:17.816Z,177.3
2023-07-29T04:40:17.797Z,177.5
2023-07-29T04:41:17.818Z,177.7
2023-07-29T04:42:17.832Z,177.2
2023-07-29T04:43:17.855Z,178
2023-07-29T04:44:17.863Z,178
2023-07-29T04:45:17.876Z,179.6
2023-07-29T04:46:17.947Z,180.2
2023-07-29T04:47:17.902Z,179.8
2023-07-29T04:48:17.916Z,180.8
2023-07-29T04:49:17.920Z,180.8
2023-07-29T04:50:17.940Z,181.4
2023-07-29T04:51:17.932Z,180.8
2023-07-29T04:52:17.974Z,182.3
2023-07-29T04:53:17.979Z,182.2
2023-07-29T04:54:18.021Z,182.9
2023-07-29T04:55:18.023Z,183.5
2023-07-29T04:56:18.938Z,183.6
2023-07-29T04:57:18.108Z,183.3
2023-07-29T04:58:17.102Z,184.3
2023-07-29T04:59:17.112Z,183.6
2023-07-29T05:00:17.153Z,183.7
2023-07-29T05:01:17.169Z,185.3
2023-07-29T05:02:17.176Z,185.3
2023-07-29T05:03:17.224Z,185.4
2023-07-29T05:04:17.267Z,185.1
2023-07-29T05:05:17.257Z,184.6
2023-07-29T05:06:17.267Z,185.7
2023-07-29T05:07:17.281Z,186
2023-07-29T05:08:17.293Z,186.4
2023-07-29T05:09:17.343Z,187.2
2023-07-29T05:10:17.324Z,188.9
2023-07-29T05:11:17.336Z,188.5
2023-07-29T05:12:17.339Z,189.3
2023-07-29T05:13:17.357Z,189.6
2023-07-29T05:14:17.385Z,190.7
2023-07-29T05:15:17.384Z,191.4
2023-07-29T05:16:17.427Z,192.3
2023-07-29T05:17:17.512Z,192.4
2023-07-29T05:18:17.455Z,191.5
2023-07-29T05:19:17.475Z,193.3
2023-07-29T05:20:17.518Z,193.6
2023-07-29T05:21:17.550Z,193.2
2023-07-29T05:22:17.562Z,193.9
2023-07-29T05:23:17.580Z,193.8
2023-07-29T05:24:17.606Z,193.2
2023-07-29T05:25:17.635Z,193.2
2023-07-29T05:26:17.662Z,194.2
2023-07-29T05:27:17.674Z,194.9
2023-07-29T05:28:17.747Z,194.9
2023-07-29T05:29:17.720Z,194.9
2023-07-29T05:30:17.739Z,194.6
2023-07-29T05:31:17.753Z,194.2
2023-07-29T05:32:17.791Z,194.9
2023-07-29T05:33:17.857Z,195.1
2023-07-29T05:34:17.791Z,195.5
2023-07-29T05:35:17.799Z,194.9
2023-07-29T05:36:17.811Z,194.4
2023-07-29T05:37:17.838Z,195.4
2023-07-29T05:38:17.822Z,195.9
2023-07-29T05:39:17.818Z,196.2
2023-07-29T05:40:17.850Z,196.6
2023-07-29T05:41:17.870Z,196.5
2023-07-29T05:42:17.897Z,196.5
2023-07-29T05:43:17.944Z,196.8
2023-07-29T05:44:17.931Z,197.1
2023-07-29T05:45:17.964Z,198
2023-07-29T05:46:18.016Z,198.3
2023-07-29T05:47:17.998Z,198.3
2023-07-29T05:48:18.037Z,198.1
2023-07-29T05:49:18.074Z,197.9
2023-07-29T05:50:18.065Z,198.8
2023-07-29T05:51:18.082Z,199.9
2023-07-29T05:52:17.107Z,200.6
2023-07-29T05:53:17.129Z,200.8
2023-07-29T05:54:17.147Z,199.9
2023-07-29T05:55:17.163Z,200.9
2023-07-29T05:56:17.171Z,200.6
2023-07-29T05:57:17.174Z,199.8
2023-07-29T05:58:17.191Z,199.3
2023-07-29T05:59:17.193Z,200.2
2023-07-29T06:00:17.213Z,201.1
2023-07-29T06:01:17.227Z,200.8
2023-07-29T06:02:17.270Z,200.8
2023-07-29T06:03:17.432Z,200.7
2023-07-29T06:04:17.290Z,201.9
2023-07-29T06:05:17.338Z,202.6
2023-07-29T06:06:17.351Z,204.1
2023-07-29T06:07:17.379Z,204.1
2023-07-29T06:08:17.381Z,204.1
2023-07-29T06:09:17.403Z,203.4
2023-07-29T06:10:17.430Z,204.1
2023-07-29T06:11:17.450Z,205.3
2023-07-29T06:12:17.489Z,208.4
2023-07-29T06:13:17.507Z,208.4
2023-07-29T06:14:17.529Z,209
2023-07-29T06:15:17.593Z,209.3
2023-07-29T06:16:17.607Z,209.4
2023-07-29T06:17:17.635Z,212.5
2023-07-29T06:18:17.589Z,213
2023-07-29T06:19:17.816Z,215.1
2023-07-29T06:20:17.630Z,216.7
2023-07-29T06:21:17.627Z,216.8
2023-07-29T06:22:17.628Z,216.8
2023-07-29T06:23:17.672Z,217.6
2023-07-29T06:24:17.647Z,217.8
2023-07-29T06:25:17.663Z,220.5
2023-07-29T06:26:17.675Z,222
2023-07-29T06:27:17.714Z,222.6
2023-07-29T06:28:17.774Z,224.5
2023-07-29T06:29:17.785Z,225
2023-07-29T06:30:17.786Z,226
2023-07-29T06:31:17.899Z,226.9
2023-07-29T06:32:17.837Z,229.8
2023-07-29T06:33:17.862Z,228.9
2023-07-29T06:34:17.904Z,229.6
2023-07-29T06:35:17.940Z,229.4
2023-07-29T06:36:17.942Z,230.6
2023-07-29T06:37:17.987Z,230.3
2023-07-29T06:38:18.000Z,233.3
2023-07-29T06:39:18.040Z,232
2023-07-29T06:40:18.044Z,234.5
2023-07-29T06:41:19.593Z,232.1
2023-07-29T06:42:18.095Z,233.3
2023-07-29T06:43:17.111Z,233.3
2023-07-29T06:44:17.140Z,232.2
2023-07-29T06:45:17.143Z,231.5
2023-07-29T06:46:17.168Z,233.5
2023-07-29T06:47:17.225Z,232.3
2023-07-29T06:48:17.198Z,233.3
2023-07-29T06:49:17.204Z,232.1
2023-07-29T06:50:17.218Z,232.1
2023-07-29T06:51:17.224Z,232.6
2023-07-29T06:52:17.251Z,231.5
2023-07-29T06:53:17.249Z,233.1
2023-07-29T06:54:17.250Z,232.4
2023-07-29T06:55:17.281Z,231.8
2023-07-29T06:56:17.287Z,231.9
2023-07-29T06:57:17.315Z,233
2023-07-29T06:58:17.344Z,232.3
2023-07-29T06:59:17.359Z,233.4
2023-07-29T07:00:17.392Z,233.6
2023-07-29T07:01:17.466Z,234
2023-07-29T07:02:17.434Z,233.6
2023-07-29T07:03:17.506Z,232
2023-07-29T07:04:17.485Z,231.2
2023-07-29T07:05:17.529Z,230.7
2023-07-29T07:06:17.537Z,230.7
2023-07-29T07:07:17.580Z,230.6
2023-07-29T07:08:17.572Z,232.7
2023-07-29T07:09:17.601Z,232.9
2023-07-29T07:10:17.617Z,232.9
2023-07-29T07:11:17.622Z,232.3
2023-07-29T07:12:17.654Z,232
2023-07-29T07:13:17.656Z,231.4
2023-07-29T07:14:17.666Z,232.1
2023-07-29T07:15:17.680Z,232.7
2023-07-29T07:16:17.756Z,233.1
2023-07-29T07:17:17.722Z,233.6
2023-07-29T07:18:17.706Z,236.3
2023-07-29T07:19:17.712Z,236
2023-07-29T07:20:17.737Z,236.7
2023-07-29T07:21:17.794Z,234.9
2023-07-29T07:22:17.804Z,237.3
2023-07-29T07:23:17.816Z,238.5
2023-07-29T07:24:17.867Z,238.3
2023-07-29T07:25:17.874Z,240.2
2023-07-29T07:26:17.914Z,240.1
2023-07-29T07:27:17.898Z,240.5
2023-07-29T07:28:17.965Z,240.8
2023-07-29T07:29:17.952Z,243
2023-07-29T07:30:17.993Z,243.4
2023-07-29T07:31:20.571Z,244.7
2023-07-29T07:32:18.042Z,245.2
2023-07-29T07:33:18.038Z,247.8
2023-07-29T07:34:18.050Z,248.3
2023-07-29T07:35:18.068Z,249.9
2023-07-29T07:36:18.077Z,251
2023-07-29T07:37:18.086Z,251.6
2023-07-29T07:38:17.107Z,250
2023-07-29T07:39:17.123Z,250.3
2023-07-29T07:40:17.119Z,251.2
2023-07-29T07:41:17.126Z,250.7
2023-07-29T07:42:17.121Z,251.1
2023-07-29T07:43:17.143Z,252.3
2023-07-29T07:44:17.175Z,251.1
2023-07-29T07:45:17.200Z,253.9
2023-07-29T07:46:17.266Z,255.3
2023-07-29T07:47:17.256Z,256.4
2023-07-29T07:48:17.277Z,255.5
2023-07-29T07:49:17.301Z,254.9
2023-07-29T07:50:17.328Z,253
2023-07-29T07:51:17.343Z,252.1
2023-07-29T07:52:17.389Z,251.1
2023-07-29T07:53:17.380Z,249.9
2023-07-29T07:54:17.413Z,248.7
2023-07-29T07:55:17.434Z,247.2
2023-07-29T07:56:17.455Z,247.9
2023-07-29T07:57:17.485Z,246.2
2023-07-29T07:58:17.483Z,243.4
2023-07-29T07:59:18.234Z,242.9
2023-07-29T08:00:17.518Z,242.2
2023-07-29T08:01:17.528Z,242.1
2023-07-29T08:02:17.537Z,242.5
2023-07-29T08:03:17.577Z,240.8
2023-07-29T08:04:17.569Z,242.1
2023-07-29T08:05:17.565Z,242.4
2023-07-29T08:06:17.575Z,242.7
2023-07-29T08:07:17.583Z,243.9
2023-07-29T08:08:17.609Z,243.7
2023-07-29T08:09:17.636Z,244.3
2023-07-29T08:10:17.672Z,245.4
2023-07-29T08:11:17.677Z,244.1
2023-07-29T08:12:20.024Z,244.4
2023-07-29T08:13:17.754Z,243.8
2023-07-29T08:14:17.764Z,245.7
2023-07-29T08:15:17.811Z,245.2
2023-07-29T08:16:17.835Z,245.2
2023-07-29T08:17:17.879Z,244.9
2023-07-29T08:18:17.861Z,244.8
2023-07-29T08:19:18.314Z,244.1
2023-07-29T08:20:17.899Z,243.6
2023-07-29T08:21:17.893Z,244.7
2023-07-29T08:22:17.928Z,243.5
2023-07-29T08:23:17.947Z,244.6
2023-07-29T08:24:17.939Z,243.7
2023-07-29T08:25:17.949Z,242.8
2023-07-29T08:26:17.949Z,243.2
2023-07-29T08:27:17.958Z,245.4
2023-07-29T08:28:18.016Z,246.8
2023-07-29T08:29:18.011Z,244.6
2023-07-29T08:30:18.037Z,248
2023-07-29T08:31:18.098Z,245.9
2023-07-29T08:32:18.082Z,247
2023-07-29T08:33:17.137Z,247.4
2023-07-29T08:34:17.200Z,250.1
2023-07-29T08:35:17.182Z,250.8
2023-07-29T08:36:17.188Z,249.9
2023-07-29T08:37:17.202Z,249.7
2023-07-29T08:38:17.215Z,250.5
2023-07-29T08:39:17.256Z,250.5
2023-07-29T08:40:17.275Z,251.2
2023-07-29T08:41:17.307Z,249.6
2023-07-29T08:42:17.329Z,247.8
2023-07-29T08:43:17.326Z,247.1
2023-07-29T08:44:17.350Z,247.5
2023-07-29T08:45:17.364Z,246.4
2023-07-29T08:46:17.453Z,247
2023-07-29T08:47:17.438Z,246.5
2023-07-29T08:48:17.381Z,246
2023-07-29T08:49:17.387Z,245.6
2023-07-29T08:50:17.406Z,244.6
2023-07-29T08:51:17.432Z,245
2023-07-29T08:52:17.501Z,244.4
2023-07-29T08:53:17.472Z,244.8
2023-07-29T08:54:17.511Z,245.1
2023-07-29T08:55:17.519Z,244.4
2023-07-29T08:56:17.537Z,244
2023-07-29T08:57:17.563Z,244.1
2023-07-29T08:58:17.576Z,243.2
2023-07-29T08:59:17.622Z,242.9
2023-07-29T09:00:20.828Z,243.7
2023-07-29T09:01:17.648Z,243.9
2023-07-29T09:02:17.757Z,244.3
2023-07-29T09:03:17.753Z,245.4
2023-07-29T09:04:17.694Z,243.9
2023-07-29T09:05:17.673Z,244.9
2023-07-29T09:06:17.686Z,244.6
2023-07-29T09:07:17.685Z,246
2023-07-29T09:08:17.694Z,245.7
2023-07-29T09:09:17.721Z,245.2
2023-07-29T09:10:17.746Z,244.2
2023-07-29T09:11:17.771Z,244.3
2023-07-29T09:12:17.800Z,244.2
2023-07-29T09:13:17.829Z,244
2023-07-29T09:14:17.851Z,243.6
2023-07-29T09:15:17.873Z,243.6
2023-07-29T09:16:17.912Z,244.5
2023-07-29T09:17:17.982Z,243.7
2023-07-29T09:18:17.968Z,246
2023-07-29T09:19:17.952Z,245.9
2023-07-29T09:20:17.981Z,246.8
2023-07-29T09:21:18.011Z,246.4
2023-07-29T09:22:18.033Z,247.6
2023-07-29T09:23:18.072Z,247.4
2023-07-29T09:24:18.066Z,244.5
2023-07-29T09:25:18.109Z,244.4
2023-07-29T09:26:18.090Z,244.2
2023-07-29T09:27:18.098Z,245.1
2023-07-29T09:28:18.195Z,244.3
2023-07-29T09:29:18.113Z,244.8
2023-07-29T09:30:18.131Z,245.9
2023-07-29T09:31:18.185Z,245.1
2023-07-29T09:32:18.164Z,245.1
2023-07-29T09:33:18.184Z,243.7
2023-07-29T09:34:18.205Z,244
2023-07-29T09:35:18.224Z,244
2023-07-29T09:36:18.280Z,245.6
2023-07-29T09:37:18.288Z,243.7
2023-07-29T09:38:18.298Z,244.4
2023-07-29T09:39:18.321Z,244.4
2023-07-29T09:40:18.358Z,245.4
2023-07-29T09:41:18.367Z,244
2023-07-29T09:42:18.453Z,243.4
2023-07-29T09:43:18.398Z,243.9
2023-07-29T09:44:18.464Z,245.3
2023-07-29T09:45:18.437Z,245.7
2023-07-29T09:46:18.541Z,245.9
2023-07-29T09:47:18.504Z,247.5
2023-07-29T09:48:18.511Z,246.2
2023-07-29T09:49:18.499Z,247.2
2023-07-29T09:50:18.510Z,245.4
2023-07-29T09:51:18.528Z,245.1
2023-07-29T09:52:18.540Z,245.8
2023-07-29T09:53:18.531Z,246.2
2023-07-29T09:54:18.561Z,246
2023-07-29T09:55:18.598Z,244.8
2023-07-29T09:56:18.624Z,244.3
2023-07-29T09:57:18.650Z,245.4
2023-07-29T09:58:18.673Z,245.1
2023-07-29T09:59:18.691Z,243.9
2023-07-29T10:00:18.755Z,243.5
2023-07-29T10:01:18.763Z,243.9
2023-07-29T10:02:18.787Z,243.3
2023-07-29T10:03:18.948Z,243.9
2023-07-29T10:04:18.818Z,244.6
2023-07-29T10:05:18.826Z,243.6
2023-07-29T10:06:18.824Z,243.7
2023-07-29T10:07:18.851Z,243.8
2023-07-29T10:08:18.859Z,242.2
2023-07-29T10:09:18.869Z,240.9
2023-07-29T10:10:18.901Z,239.9
2023-07-29T10:11:18.875Z,240.2
2023-07-29T10:12:19.236Z,241.3
2023-07-29T10:13:18.891Z,239.7
2023-07-29T10:14:18.905Z,241.2
2023-07-29T10:15:18.956Z,240.5
2023-07-29T10:16:19.041Z,239.5
2023-07-29T10:17:19.011Z,238.8
2023-07-29T10:18:19.018Z,238.3
2023-07-29T10:19:19.031Z,238.5
2023-07-29T10:20:19.066Z,240.7
2023-07-29T10:21:19.092Z,239.6
2023-07-29T10:22:18.107Z,240.3
2023-07-29T10:23:18.163Z,240.8
2023-07-29T10:24:18.162Z,239.7
2023-07-29T10:25:18.188Z,241.1
2023-07-29T10:26:18.205Z,239.7
2023-07-29T10:27:18.229Z,242.3
2023-07-29T10:28:18.273Z,240.7
2023-07-29T10:29:18.328Z,239.9
2023-07-29T10:30:18.272Z,242.3
2023-07-29T10:31:18.303Z,241.4
2023-07-29T10:32:18.323Z,242.1
2023-07-29T10:33:18.427Z,241.5
2023-07-29T10:34:18.343Z,242.3
2023-07-29T10:35:18.336Z,239.9
2023-07-29T10:36:19.190Z,242.2
2023-07-29T10:37:18.364Z,241.6
2023-07-29T10:38:18.360Z,240.3
2023-07-29T10:39:18.403Z,241
2023-07-29T10:40:18.412Z,240.9
2023-07-29T10:41:18.431Z,240.3
2023-07-29T10:42:18.487Z,240.4
2023-07-29T10:43:18.476Z,240.1
2023-07-29T10:44:18.521Z,239.5
2023-07-29T10:45:18.522Z,238.6
2023-07-29T10:46:18.632Z,238.2
2023-07-29T10:47:18.611Z,237.2
2023-07-29T10:48:18.587Z,235.5
2023-07-29T10:49:18.591Z,234.6
2023-07-29T10:50:18.615Z,236.5
2023-07-29T10:51:18.632Z,237
2023-07-29T10:52:18.661Z,235.1
2023-07-29T10:53:18.669Z,234.3
2023-07-29T10:54:18.686Z,235.9
2023-07-29T10:55:18.705Z,234.8
2023-07-29T10:56:18.724Z,236.7
2023-07-29T10:57:18.720Z,237.4
2023-07-29T10:58:18.935Z,238.1
2023-07-29T10:59:18.833Z,238
2023-07-29T11:00:18.752Z,237.3
2023-07-29T11:01:18.832Z,236.6
2023-07-29T11:02:18.805Z,235.5
2023-07-29T11:03:18.829Z,234.7
2023-07-29T11:04:18.901Z,235.6
2023-07-29T11:05:19.051Z,233.3
2023-07-29T11:06:18.898Z,235.2
2023-07-29T11:07:18.922Z,233.9
2023-07-29T11:08:18.924Z,232.1
2023-07-29T11:09:18.949Z,233.9
2023-07-29T11:10:18.972Z,234.6
2023-07-29T11:11:19.017Z,232.5
2023-07-29T11:12:19.010Z,230.5
2023-07-29T11:13:19.023Z,232.6
2023-07-29T11:14:19.040Z,232.1
2023-07-29T11:15:19.060Z,233.5
2023-07-29T11:16:19.124Z,234.5
2023-07-29T11:17:19.059Z,234.6
2023-07-29T11:18:19.065Z,233.9
2023-07-29T11:19:19.074Z,235.6
2023-07-29T11:20:18.122Z,235.3
2023-07-29T11:21:18.126Z,236.2
2023-07-29T11:22:18.189Z,234.9
2023-07-29T11:23:18.209Z,237
2023-07-29T11:24:18.217Z,235.9
2023-07-29T11:25:18.261Z,234.3
2023-07-29T11:26:18.266Z,233.8
2023-07-29T11:27:18.311Z,233.2
2023-07-29T11:28:18.312Z,235.8
2023-07-29T11:29:18.339Z,235.6
2023-07-29T11:30:18.400Z,236.4
2023-07-29T11:31:18.380Z,235.2
2023-07-29T11:32:18.430Z,236.1
2023-07-29T11:33:18.765Z,237.3
2023-07-29T11:34:18.438Z,238
2023-07-29T11:35:18.456Z,237.9
2023-07-29T11:36:18.472Z,237.7
2023-07-29T11:37:18.483Z,237.4
2023-07-29T11:38:18.498Z,237.1
2023-07-29T11:39:18.497Z,235.6
2023-07-29T11:40:18.510Z,236.4
2023-07-29T11:41:18.523Z,235.6
2023-07-29T11:42:18.534Z,236
2023-07-29T11:43:18.547Z,236
2023-07-29T11:44:18.569Z,236.8
2023-07-29T11:45:18.702Z,237
2023-07-29T11:46:18.664Z,238
2023-07-29T11:47:18.698Z,239.3
2023-07-29T11:48:18.681Z,239.7
2023-07-29T11:49:18.694Z,239.7
2023-07-29T11:50:18.721Z,239.6
2023-07-29T11:51:18.754Z,238.9
2023-07-29T11:52:18.776Z,238.9
2023-07-29T11:53:18.837Z,239.3
2023-07-29T11:54:18.828Z,239.3
2023-07-29T11:55:18.849Z,240.1
2023-07-29T11:56:18.865Z,239.9
2023-07-29T11:57:18.940Z,240.5
2023-07-29T11:58:18.930Z,242.5
2023-07-29T11:59:18.964Z,242.6
2023-07-29T12:00:18.954Z,242.6
2023-07-29T12:01:19.033Z,242.4
2023-07-29T12:02:18.981Z,242.3
2023-07-29T12:03:19.236Z,242.8
2023-07-29T12:04:19.026Z,242.7
2023-07-29T12:05:19.036Z,242.4
2023-07-29T12:06:19.021Z,242.3
2023-07-29T12:07:19.012Z,242.5
2023-07-29T12:08:19.039Z,243.1
2023-07-29T12:09:19.078Z,242.1
2023-07-29T12:10:18.124Z,241.8
2023-07-29T12:11:18.183Z,242.5
2023-07-29T12:12:18.149Z,242.1
2023-07-29T12:13:18.177Z,242.3
2023-07-29T12:14:18.197Z,242.5
2023-07-29T12:15:18.226Z,245
2023-07-29T12:16:18.282Z,246.4
2023-07-29T12:17:18.316Z,246.2
2023-07-29T12:18:18.392Z,247.6
2023-07-29T12:19:18.310Z,247.6
2023-07-29T12:20:18.324Z,249.4
2023-07-29T12:21:18.348Z,249.2
2023-07-29T12:22:18.373Z,249.5
2023-07-29T12:23:18.386Z,250.2
2023-07-29T12:24:18.390Z,250.2
2023-07-29T12:25:18.404Z,252
2023-07-29T12:26:18.407Z,253.3
2023-07-29T12:27:18.450Z,253.4
2023-07-29T12:28:18.476Z,254.6
2023-07-29T12:29:18.428Z,254.9
2023-07-29T12:30:18.455Z,254.8
2023-07-29T12:31:18.527Z,256.5
2023-07-29T12:32:18.543Z,257.5
2023-07-29T12:33:18.601Z,257.7
2023-07-29T12:34:18.573Z,258.4
2023-07-29T12:35:18.608Z,258.3
2023-07-29T12:36:18.606Z,258.4
2023-07-29T12:37:18.635Z,260
2023-07-29T12:38:18.666Z,260.9
2023-07-29T12:39:18.692Z,261.3
2023-07-29T12:40:18.706Z,262.3
2023-07-29T12:41:18.739Z,262
2023-07-29T12:42:18.737Z,264.1
2023-07-29T12:43:18.773Z,265.3
2023-07-29T12:44:18.805Z,265.4
2023-07-29T12:45:18.793Z,265.9
2023-07-29T12:46:18.959Z,264.5
2023-07-29T12:47:18.808Z,266.1
2023-07-29T12:48:18.827Z,266.5
2023-07-29T12:49:18.841Z,265.1
2023-07-29T12:50:18.825Z,263.8
2023-07-29T12:51:18.883Z,262.9
2023-07-29T12:52:18.880Z,264.4
2023-07-29T12:53:18.909Z,266.3
2023-07-29T12:54:18.953Z,264.4
2023-07-29T12:55:22.907Z,268.2
2023-07-29T12:56:19.004Z,268.8
2023-07-29T12:57:19.017Z,265.7